sensor_id;sensor_type;location;lat;lon;timestamp;pressure;altitude;pressure_sealevel;temperature;humidity
56894;BME280;43392;50.078;13.704;2023-05-03T00:01:10;97834.94;;;8.43;80.04
56894;BME280;43392;50.078;13.704;2023-05-03T00:03:37;97833.09;;;8.44;80.58
56894;BME280;43392;50.078;13.704;2023-05-03T00:06:10;97833.34;;;8.42;80.46
56894;BME280;43392;50.078;13.704;2023-05-03T00:08:37;97831.94;;;8.40;80.67
56894;BME280;43392;50.078;13.704;2023-05-03T00:11:05;97828.47;;;8.39;80.46
56894;BME280;43392;50.078;13.704;2023-05-03T00:13:31;97835.91;;;8.37;80.55
56894;BME280;43392;50.078;13.704;2023-05-03T00:15:58;97834.84;;;8.38;80.62
56894;BME280;43392;50.078;13.704;2023-05-03T00:18:25;97827.44;;;8.40;80.35
56894;BME280;43392;50.078;13.704;2023-05-03T00:20:51;97828.47;;;8.39;80.43
56894;BME280;43392;50.078;13.704;2023-05-03T00:23:18;97832.56;;;8.30;80.51
56894;BME280;43392;50.078;13.704;2023-05-03T00:25:45;97832.31;;;8.32;80.63
56894;BME280;43392;50.078;13.704;2023-05-03T00:28:13;97835.56;;;8.34;80.54
56894;BME280;43392;50.078;13.704;2023-05-03T00:30:40;97827.44;;;8.40;80.26
56894;BME280;43392;50.078;13.704;2023-05-03T00:33:06;97828.31;;;8.46;79.63
56894;BME280;43392;50.078;13.704;2023-05-03T00:35:33;97842.56;;;8.51;79.58
56894;BME280;43392;50.078;13.704;2023-05-03T00:38:00;97842.91;;;8.55;79.35
56894;BME280;43392;50.078;13.704;2023-05-03T00:40:26;97837.97;;;8.47;79.43
56894;BME280;43392;50.078;13.704;2023-05-03T00:42:53;97836.81;;;8.43;79.68
56894;BME280;43392;50.078;13.704;2023-05-03T00:45:21;97838.44;;;8.44;79.01
56894;BME280;43392;50.078;13.704;2023-05-03T00:47:48;97829.94;;;8.47;78.94
56894;BME280;43392;50.078;13.704;2023-05-03T00:50:14;97834.38;;;8.41;78.69
56894;BME280;43392;50.078;13.704;2023-05-03T00:52:41;97834.94;;;8.43;78.40
56894;BME280;43392;50.078;13.704;2023-05-03T00:55:09;97838.44;;;8.44;78.08
56894;BME280;43392;50.078;13.704;2023-05-03T00:57:35;97833.81;;;8.39;78.17
56894;BME280;43392;50.078;13.704;2023-05-03T01:00:02;97838.00;;;8.24;78.22
56894;BME280;43392;50.078;13.704;2023-05-03T01:02:30;97827.81;;;8.21;78.63
56894;BME280;43392;50.078;13.704;2023-05-03T01:04:58;97831.44;;;8.15;78.82
56894;BME280;43392;50.078;13.704;2023-05-03T01:07:32;97834.72;;;8.05;79.08
56894;BME280;43392;50.078;13.704;2023-05-03T01:10:08;97840.94;;;7.94;79.61
56894;BME280;43392;50.078;13.704;2023-05-03T01:12:45;97838.38;;;7.87;79.72
56894;BME280;43392;50.078;13.704;2023-05-03T01:15:27;97836.19;;;7.84;79.88
56894;BME280;43392;50.078;13.704;2023-05-03T01:18:03;97843.72;;;7.87;79.85
56894;BME280;43392;50.078;13.704;2023-05-03T01:20:33;97832.81;;;7.89;80.05
56894;BME280;43392;50.078;13.704;2023-05-03T01:23:10;97829.13;;;7.78;80.53
56894;BME280;43392;50.078;13.704;2023-05-03T01:25:41;97839.59;;;7.80;80.61
56894;BME280;43392;50.078;13.704;2023-05-03T01:28:07;97833.84;;;7.88;80.32
56894;BME280;43392;50.078;13.704;2023-05-03T01:30:35;97826.03;;;7.98;79.97
56894;BME280;43392;50.078;13.704;2023-05-03T01:33:06;97825.09;;;8.04;79.33
56894;BME280;43392;50.078;13.704;2023-05-03T01:35:39;97825.22;;;7.97;79.59
56894;BME280;43392;50.078;13.704;2023-05-03T01:38:07;97816.19;;;7.98;79.47
56894;BME280;43392;50.078;13.704;2023-05-03T01:40:38;97824.56;;;7.90;79.56
56894;BME280;43392;50.078;13.704;2023-05-03T01:43:10;97831.66;;;7.85;79.47
56894;BME280;43392;50.078;13.704;2023-05-03T01:45:37;97823.88;;;7.83;79.60
56894;BME280;43392;50.078;13.704;2023-05-03T01:48:08;97831.47;;;7.75;79.71
56894;BME280;43392;50.078;13.704;2023-05-03T01:50:34;97833.88;;;7.76;79.96
56894;BME280;43392;50.078;13.704;2023-05-03T01:53:01;97835.06;;;7.69;79.93
56894;BME280;43392;50.078;13.704;2023-05-03T01:55:28;97842.25;;;7.68;80.13
56894;BME280;43392;50.078;13.704;2023-05-03T01:57:54;97843.06;;;7.69;80.09
56894;BME280;43392;50.078;13.704;2023-05-03T02:00:22;97847.38;;;7.70;79.94
56894;BME280;43392;50.078;13.704;2023-05-03T02:02:49;97849.13;;;7.64;80.00
56894;BME280;43392;50.078;13.704;2023-05-03T02:05:16;97835.09;;;7.57;80.09
56894;BME280;43392;50.078;13.704;2023-05-03T02:07:42;97835.22;;;7.51;80.17
56894;BME280;43392;50.078;13.704;2023-05-03T02:10:09;97841.47;;;7.45;80.64
56894;BME280;43392;50.078;13.704;2023-05-03T02:12:38;97838.81;;;7.45;80.80
56894;BME280;43392;50.078;13.704;2023-05-03T02:15:06;97838.25;;;7.43;80.52
56894;BME280;43392;50.078;13.704;2023-05-03T02:17:34;97838.09;;;7.49;80.62
56894;BME280;43392;50.078;13.704;2023-05-03T02:20:01;97843.56;;;7.54;80.44
56894;BME280;43392;50.078;13.704;2023-05-03T02:22:30;97842.84;;;7.59;80.16
56894;BME280;43392;50.078;13.704;2023-05-03T02:24:57;97844.81;;;7.63;80.13
56894;BME280;43392;50.078;13.704;2023-05-03T02:27:23;97841.94;;;7.65;79.91
56894;BME280;43392;50.078;13.704;2023-05-03T02:29:50;97845.50;;;7.70;79.74
56894;BME280;43392;50.078;13.704;2023-05-03T02:32:17;97839.13;;;7.71;79.54
56894;BME280;43392;50.078;13.704;2023-05-03T02:34:47;97844.69;;;7.70;79.33
56894;BME280;43392;50.078;13.704;2023-05-03T02:37:14;97848.66;;;7.67;79.34
56894;BME280;43392;50.078;13.704;2023-05-03T02:39:40;97850.03;;;7.58;79.44
56894;BME280;43392;50.078;13.704;2023-05-03T02:42:07;97853.31;;;7.49;79.58
56894;BME280;43392;50.078;13.704;2023-05-03T02:44:34;97848.34;;;7.41;80.17
56894;BME280;43392;50.078;13.704;2023-05-03T02:47:00;97855.41;;;7.35;80.75
56894;BME280;43392;50.078;13.704;2023-05-03T02:49:27;97849.13;;;7.29;80.86
56894;BME280;43392;50.078;13.704;2023-05-03T02:51:55;97850.78;;;7.30;80.82
56894;BME280;43392;50.078;13.704;2023-05-03T02:54:22;97857.72;;;7.31;81.05
56894;BME280;43392;50.078;13.704;2023-05-03T02:56:48;97852.75;;;7.35;81.25
56894;BME280;43392;50.078;13.704;2023-05-03T02:59:15;97857.16;;;7.41;81.22
56894;BME280;43392;50.078;13.704;2023-05-03T03:01:42;97858.66;;;7.37;80.73
56894;BME280;43392;50.078;13.704;2023-05-03T03:04:09;97856.44;;;7.34;80.81
56894;BME280;43392;50.078;13.704;2023-05-03T03:06:35;97858.53;;;7.32;81.05
56894;BME280;43392;50.078;13.704;2023-05-03T03:09:03;97857.63;;;7.38;81.43
56894;BME280;43392;50.078;13.704;2023-05-03T03:11:30;97859.34;;;7.44;81.17
56894;BME280;43392;50.078;13.704;2023-05-03T03:13:57;97846.69;;;7.51;80.71
56894;BME280;43392;50.078;13.704;2023-05-03T03:16:23;97855.63;;;7.57;80.78
56894;BME280;43392;50.078;13.704;2023-05-03T03:18:50;97855.38;;;7.58;80.56
56894;BME280;43392;50.078;13.704;2023-05-03T03:21:16;97852.72;;;7.58;80.85
56894;BME280;43392;50.078;13.704;2023-05-03T03:23:43;97855.97;;;7.60;80.79
56894;BME280;43392;50.078;13.704;2023-05-03T03:26:11;97851.53;;;7.66;80.88
56894;BME280;43392;50.078;13.704;2023-05-03T03:28:37;97856.16;;;7.70;80.59
56894;BME280;43392;50.078;13.704;2023-05-03T03:31:04;97851.19;;;7.74;80.41
56894;BME280;43392;50.078;13.704;2023-05-03T03:33:31;97850.72;;;7.77;80.39
56894;BME280;43392;50.078;13.704;2023-05-03T03:35:57;97855.59;;;7.80;80.55
56894;BME280;43392;50.078;13.704;2023-05-03T03:38:24;97860.44;;;7.83;80.22
56894;BME280;43392;50.078;13.704;2023-05-03T03:40:50;97852.69;;;7.81;80.18
56894;BME280;43392;50.078;13.704;2023-05-03T03:43:19;97851.41;;;7.84;80.07
56894;BME280;43392;50.078;13.704;2023-05-03T03:45:46;97859.41;;;7.84;79.75
56894;BME280;43392;50.078;13.704;2023-05-03T03:48:13;97853.81;;;7.85;80.13
56894;BME280;43392;50.078;13.704;2023-05-03T03:50:40;97860.22;;;7.84;79.63
56894;BME280;43392;50.078;13.704;2023-05-03T03:53:06;97867.88;;;7.81;79.89
56894;BME280;43392;50.078;13.704;2023-05-03T03:55:35;97857.81;;;7.71;79.85
56894;BME280;43392;50.078;13.704;2023-05-03T03:58:01;97863.72;;;7.73;80.36
56894;BME280;43392;50.078;13.704;2023-05-03T04:00:29;97873.81;;;7.71;80.07
56894;BME280;43392;50.078;13.704;2023-05-03T04:02:56;97876.84;;;7.63;79.78
56894;BME280;43392;50.078;13.704;2023-05-03T04:05:23;97881.59;;;7.61;80.48
56894;BME280;43392;50.078;13.704;2023-05-03T04:07:49;97883.47;;;7.61;80.18
56894;BME280;43392;50.078;13.704;2023-05-03T04:10:16;97888.78;;;7.61;80.24
56894;BME280;43392;50.078;13.704;2023-05-03T04:12:43;97887.31;;;7.65;80.60
56894;BME280;43392;50.078;13.704;2023-05-03T04:15:10;97887.53;;;7.63;80.53
56894;BME280;43392;50.078;13.704;2023-05-03T04:17:38;97897.75;;;7.66;80.32
56894;BME280;43392;50.078;13.704;2023-05-03T04:20:06;97898.81;;;7.65;80.86
56894;BME280;43392;50.078;13.704;2023-05-03T04:22:35;97895.53;;;7.63;79.90
56894;BME280;43392;50.078;13.704;2023-05-03T04:25:02;97900.88;;;7.63;80.52
56894;BME280;43392;50.078;13.704;2023-05-03T04:27:29;97908.53;;;7.60;80.68
56894;BME280;43392;50.078;13.704;2023-05-03T04:29:57;97903.41;;;7.58;80.68
56894;BME280;43392;50.078;13.704;2023-05-03T04:32:24;97911.78;;;7.62;80.79
56894;BME280;43392;50.078;13.704;2023-05-03T04:34:52;97909.00;;;7.57;80.59
56894;BME280;43392;50.078;13.704;2023-05-03T04:37:19;97914.09;;;7.58;80.61
56894;BME280;43392;50.078;13.704;2023-05-03T04:39:46;97914.09;;;7.58;80.52
56894;BME280;43392;50.078;13.704;2023-05-03T04:42:12;97918.16;;;7.61;80.14
56894;BME280;43392;50.078;13.704;2023-05-03T04:44:41;97918.84;;;7.68;80.20
56894;BME280;43392;50.078;13.704;2023-05-03T04:47:08;97914.91;;;7.70;80.12
56894;BME280;43392;50.078;13.704;2023-05-03T04:49:35;97925.22;;;7.78;79.93
56894;BME280;43392;50.078;13.704;2023-05-03T04:52:03;97926.16;;;7.84;77.42
56894;BME280;43392;50.078;13.704;2023-05-03T04:54:30;97925.00;;;7.91;75.21
56894;BME280;43392;50.078;13.704;2023-05-03T04:56:57;97924.63;;;7.99;74.77
56894;BME280;43392;50.078;13.704;2023-05-03T04:59:23;97924.84;;;8.10;74.23
56894;BME280;43392;50.078;13.704;2023-05-03T05:01:50;97929.34;;;8.21;73.76
56894;BME280;43392;50.078;13.704;2023-05-03T05:04:16;97928.84;;;8.24;73.33
56894;BME280;43392;50.078;13.704;2023-05-03T05:06:43;97924.00;;;8.21;73.13
56894;BME280;43392;50.078;13.704;2023-05-03T05:09:20;97933.56;;;8.28;73.06
56894;BME280;43392;50.078;13.704;2023-05-03T05:11:47;97930.63;;;8.30;72.53
56894;BME280;43392;50.078;13.704;2023-05-03T05:14:14;97938.03;;;8.39;72.69
56894;BME280;43392;50.078;13.704;2023-05-03T05:16:41;97946.97;;;8.33;73.09
56894;BME280;43392;50.078;13.704;2023-05-03T05:19:07;97946.31;;;8.38;72.54
56894;BME280;43392;50.078;13.704;2023-05-03T05:21:34;97951.16;;;8.41;72.59
56894;BME280;43392;50.078;13.704;2023-05-03T05:24:01;97955.09;;;8.38;73.48
56894;BME280;43392;50.078;13.704;2023-05-03T05:26:29;97956.19;;;8.26;74.71
56894;BME280;43392;50.078;13.704;2023-05-03T05:28:55;97969.91;;;8.18;75.20
56894;BME280;43392;50.078;13.704;2023-05-03T05:31:22;97965.25;;;8.13;74.49
56894;BME280;43392;50.078;13.704;2023-05-03T05:33:49;97961.75;;;8.24;74.96
56894;BME280;43392;50.078;13.704;2023-05-03T05:36:16;97959.72;;;8.54;75.02
56894;BME280;43392;50.078;13.704;2023-05-03T05:38:43;97952.41;;;8.78;72.11
56894;BME280;43392;50.078;13.704;2023-05-03T05:41:09;97956.78;;;8.84;70.98
56894;BME280;43392;50.078;13.704;2023-05-03T05:43:37;97962.22;;;8.89;70.34
56894;BME280;43392;50.078;13.704;2023-05-03T05:46:04;97959.56;;;8.89;69.36
56894;BME280;43392;50.078;13.704;2023-05-03T05:48:30;97952.50;;;8.83;67.88
56894;BME280;43392;50.078;13.704;2023-05-03T05:50:57;97962.06;;;8.79;68.65
56894;BME280;43392;50.078;13.704;2023-05-03T05:53:23;97959.00;;;8.87;68.53
56894;BME280;43392;50.078;13.704;2023-05-03T05:55:50;97976.06;;;8.98;67.74
56894;BME280;43392;50.078;13.704;2023-05-03T05:58:17;97970.53;;;9.04;67.49
56894;BME280;43392;50.078;13.704;2023-05-03T06:00:45;97971.53;;;9.15;67.70
56894;BME280;43392;50.078;13.704;2023-05-03T06:03:13;97971.94;;;9.23;67.07
56894;BME280;43392;50.078;13.704;2023-05-03T06:05:39;97985.25;;;9.35;66.93
56894;BME280;43392;50.078;13.704;2023-05-03T06:08:06;97986.97;;;9.24;66.17
56894;BME280;43392;50.078;13.704;2023-05-03T06:10:33;97991.25;;;9.25;67.27
56894;BME280;43392;50.078;13.704;2023-05-03T06:13:00;97991.59;;;9.29;67.30
56894;BME280;43392;50.078;13.704;2023-05-03T06:15:28;97999.13;;;9.32;65.01
56894;BME280;43392;50.078;13.704;2023-05-03T06:17:56;97998.13;;;9.21;65.86
56894;BME280;43392;50.078;13.704;2023-05-03T06:20:22;97983.88;;;9.32;65.17
56894;BME280;43392;50.078;13.704;2023-05-03T06:22:49;97985.19;;;9.47;65.02
56894;BME280;43392;50.078;13.704;2023-05-03T06:25:16;97991.84;;;9.61;65.18
56894;BME280;43392;50.078;13.704;2023-05-03T06:27:43;97986.09;;;9.69;64.45
56894;BME280;43392;50.078;13.704;2023-05-03T06:30:10;97980.47;;;9.70;63.98
56894;BME280;43392;50.078;13.704;2023-05-03T06:32:37;97997.00;;;9.84;64.04
56894;BME280;43392;50.078;13.704;2023-05-03T06:35:06;97999.94;;;9.82;64.23
56894;BME280;43392;50.078;13.704;2023-05-03T06:37:33;97993.59;;;9.88;64.42
56894;BME280;43392;50.078;13.704;2023-05-03T06:40:00;97995.13;;;10.01;64.33
56894;BME280;43392;50.078;13.704;2023-05-03T06:42:27;97993.91;;;10.09;64.18
56894;BME280;43392;50.078;13.704;2023-05-03T06:44:53;97998.88;;;10.00;63.46
56894;BME280;43392;50.078;13.704;2023-05-03T06:47:20;97996.44;;;9.98;62.94
56894;BME280;43392;50.078;13.704;2023-05-03T06:49:47;97997.50;;;9.97;64.52
56894;BME280;43392;50.078;13.704;2023-05-03T06:52:15;97999.94;;;9.99;65.98
56894;BME280;43392;50.078;13.704;2023-05-03T06:54:42;98000.09;;;9.92;66.68
56894;BME280;43392;50.078;13.704;2023-05-03T06:57:09;97997.44;;;9.76;67.08
56894;BME280;43392;50.078;13.704;2023-05-03T06:59:35;98002.22;;;9.74;67.02
56894;BME280;43392;50.078;13.704;2023-05-03T07:02:02;98001.22;;;9.96;66.41
56894;BME280;43392;50.078;13.704;2023-05-03T07:04:29;97995.88;;;10.13;64.04
56894;BME280;43392;50.078;13.704;2023-05-03T07:06:55;98000.13;;;10.31;63.48
56894;BME280;43392;50.078;13.704;2023-05-03T07:09:23;97997.72;;;10.13;65.33
56894;BME280;43392;50.078;13.704;2023-05-03T07:11:50;98004.16;;;9.95;66.07
56894;BME280;43392;50.078;13.704;2023-05-03T07:14:17;97993.00;;;10.03;65.94
56894;BME280;43392;50.078;13.704;2023-05-03T07:16:44;97997.81;;;10.01;66.07
56894;BME280;43392;50.078;13.704;2023-05-03T07:19:10;98002.97;;;10.08;65.68
56894;BME280;43392;50.078;13.704;2023-05-03T07:21:37;97996.69;;;9.97;66.71
56894;BME280;43392;50.078;13.704;2023-05-03T07:24:04;97994.31;;;10.00;66.09
56894;BME280;43392;50.078;13.704;2023-05-03T07:26:33;97990.78;;;9.95;66.88
56894;BME280;43392;50.078;13.704;2023-05-03T07:29:00;98000.13;;;9.76;67.47
56894;BME280;43392;50.078;13.704;2023-05-03T07:31:27;98003.38;;;9.61;67.76
56894;BME280;43392;50.078;13.704;2023-05-03T07:33:53;97994.03;;;9.64;67.71
56894;BME280;43392;50.078;13.704;2023-05-03T07:36:20;97994.59;;;9.82;67.57
56894;BME280;43392;50.078;13.704;2023-05-03T07:38:47;97992.22;;;10.19;66.02
56894;BME280;43392;50.078;13.704;2023-05-03T07:41:14;97987.00;;;10.51;64.74
56894;BME280;43392;50.078;13.704;2023-05-03T07:43:42;97981.00;;;10.65;63.96
56894;BME280;43392;50.078;13.704;2023-05-03T07:46:09;97987.97;;;10.66;64.39
56894;BME280;43392;50.078;13.704;2023-05-03T07:48:35;97984.81;;;10.70;62.84
56894;BME280;43392;50.078;13.704;2023-05-03T07:51:02;97984.31;;;10.73;63.09
56894;BME280;43392;50.078;13.704;2023-05-03T07:53:29;97975.03;;;10.85;63.30
56894;BME280;43392;50.078;13.704;2023-05-03T07:55:56;97993.09;;;10.90;62.80
56894;BME280;43392;50.078;13.704;2023-05-03T07:58:22;97983.72;;;10.92;62.01
56894;BME280;43392;50.078;13.704;2023-05-03T08:00:50;97986.97;;;10.94;62.39
56894;BME280;43392;50.078;13.704;2023-05-03T08:03:17;97983.50;;;10.99;62.66
56894;BME280;43392;50.078;13.704;2023-05-03T08:05:43;97988.03;;;10.72;62.87
56894;BME280;43392;50.078;13.704;2023-05-03T08:08:10;97977.00;;;10.95;63.01
56894;BME280;43392;50.078;13.704;2023-05-03T08:10:38;97974.00;;;11.13;62.49
56894;BME280;43392;50.078;13.704;2023-05-03T08:13:05;97970.91;;;11.26;61.74
56894;BME280;43392;50.078;13.704;2023-05-03T08:15:32;97977.91;;;11.32;61.99
56894;BME280;43392;50.078;13.704;2023-05-03T08:18:00;97973.63;;;11.31;61.61
56894;BME280;43392;50.078;13.704;2023-05-03T08:20:26;97968.78;;;11.28;61.81
56894;BME280;43392;50.078;13.704;2023-05-03T08:22:53;97977.38;;;11.30;61.03
56894;BME280;43392;50.078;13.704;2023-05-03T08:25:21;97978.84;;;11.43;60.25
56894;BME280;43392;50.078;13.704;2023-05-03T08:27:48;97978.44;;;11.61;60.43
56894;BME280;43392;50.078;13.704;2023-05-03T08:30:14;97975.47;;;11.57;60.87
56894;BME280;43392;50.078;13.704;2023-05-03T08:32:41;97979.78;;;11.63;61.12
56894;BME280;43392;50.078;13.704;2023-05-03T08:35:10;97976.53;;;11.56;60.27
56894;BME280;43392;50.078;13.704;2023-05-03T08:37:38;97973.75;;;11.46;60.68
56894;BME280;43392;50.078;13.704;2023-05-03T08:40:06;97979.66;;;11.43;60.42
56894;BME280;43392;50.078;13.704;2023-05-03T08:42:38;97988.00;;;11.47;60.84
56894;BME280;43392;50.078;13.704;2023-05-03T08:45:05;97982.97;;;11.55;60.51
56894;BME280;43392;50.078;13.704;2023-05-03T08:47:35;97980.88;;;11.62;60.64
56894;BME280;43392;50.078;13.704;2023-05-03T08:50:04;97986.38;;;11.77;60.59
56894;BME280;43392;50.078;13.704;2023-05-03T08:52:33;97987.22;;;11.83;60.13
56894;BME280;43392;50.078;13.704;2023-05-03T08:55:00;97982.41;;;11.85;58.90
56894;BME280;43392;50.078;13.704;2023-05-03T08:57:26;97986.66;;;11.76;59.18
56894;BME280;43392;50.078;13.704;2023-05-03T08:59:53;97979.09;;;11.73;59.23
56894;BME280;43392;50.078;13.704;2023-05-03T09:02:25;97984.22;;;11.74;59.13
56894;BME280;43392;50.078;13.704;2023-05-03T09:04:52;97984.78;;;11.76;58.35
56894;BME280;43392;50.078;13.704;2023-05-03T09:07:19;97984.53;;;11.83;58.12
56894;BME280;43392;50.078;13.704;2023-05-03T09:09:47;97987.03;;;11.94;57.14
56894;BME280;43392;50.078;13.704;2023-05-03T09:12:32;97976.63;;;12.03;55.91
56894;BME280;43392;50.078;13.704;2023-05-03T09:14:59;97981.72;;;12.05;55.46
56894;BME280;43392;50.078;13.704;2023-05-03T09:17:26;97986.56;;;12.03;55.41
56894;BME280;43392;50.078;13.704;2023-05-03T09:19:54;97987.69;;;12.12;55.60
56894;BME280;43392;50.078;13.704;2023-05-03T09:22:22;97981.06;;;12.29;54.90
56894;BME280;43392;50.078;13.704;2023-05-03T09:24:53;97984.09;;;12.43;54.67
56894;BME280;43392;50.078;13.704;2023-05-03T09:27:21;97983.06;;;12.49;54.56
56894;BME280;43392;50.078;13.704;2023-05-03T09:29:48;97986.84;;;12.58;53.58
56894;BME280;43392;50.078;13.704;2023-05-03T09:32:15;97990.63;;;12.57;53.61
56894;BME280;43392;50.078;13.704;2023-05-03T09:34:42;97980.94;;;12.61;53.35
56894;BME280;43392;50.078;13.704;2023-05-03T09:37:10;97982.56;;;12.67;53.63
56894;BME280;43392;50.078;13.704;2023-05-03T09:39:39;97985.19;;;12.47;53.23
56894;BME280;43392;50.078;13.704;2023-05-03T09:42:11;97983.31;;;12.42;53.89
56894;BME280;43392;50.078;13.704;2023-05-03T09:44:43;97988.22;;;12.60;52.08
56894;BME280;43392;50.078;13.704;2023-05-03T09:47:13;97982.94;;;12.29;52.80
56894;BME280;43392;50.078;13.704;2023-05-03T09:49:40;97977.06;;;12.32;52.89
56894;BME280;43392;50.078;13.704;2023-05-03T09:52:07;97982.75;;;12.45;53.16
56894;BME280;43392;50.078;13.704;2023-05-03T09:54:34;97971.81;;;12.72;52.73
56894;BME280;43392;50.078;13.704;2023-05-03T09:57:02;97971.38;;;12.95;51.02
56894;BME280;43392;50.078;13.704;2023-05-03T09:59:31;97977.31;;;13.02;52.40
56894;BME280;43392;50.078;13.704;2023-05-03T10:02:00;97973.34;;;13.15;51.57
56894;BME280;43392;50.078;13.704;2023-05-03T10:04:30;97979.75;;;12.32;52.16
56894;BME280;43392;50.078;13.704;2023-05-03T10:07:03;97970.19;;;12.61;52.22
56894;BME280;43392;50.078;13.704;2023-05-03T10:09:35;97963.50;;;12.74;52.76
56894;BME280;43392;50.078;13.704;2023-05-03T10:12:06;97967.59;;;13.01;51.29
56894;BME280;43392;50.078;13.704;2023-05-03T10:14:35;97962.84;;;13.23;50.90
56894;BME280;43392;50.078;13.704;2023-05-03T10:17:04;97971.16;;;13.12;52.05
56894;BME280;43392;50.078;13.704;2023-05-03T10:19:35;97959.84;;;13.25;51.07
56894;BME280;43392;50.078;13.704;2023-05-03T10:22:06;97970.41;;;13.32;50.50
56894;BME280;43392;50.078;13.704;2023-05-03T10:24:34;97963.56;;;13.04;50.67
56894;BME280;43392;50.078;13.704;2023-05-03T10:27:01;97955.00;;;13.07;51.40
56894;BME280;43392;50.078;13.704;2023-05-03T10:29:47;97947.47;;;13.14;50.98
56894;BME280;43392;50.078;13.704;2023-05-03T10:32:34;97958.81;;;13.41;50.92
56894;BME280;43392;50.078;13.704;2023-05-03T10:35:06;97956.38;;;13.19;52.16
56894;BME280;43392;50.078;13.704;2023-05-03T10:37:33;97961.69;;;12.99;52.76
56894;BME280;43392;50.078;13.704;2023-05-03T10:40:07;97955.34;;;12.53;52.98
56894;BME280;43392;50.078;13.704;2023-05-03T10:42:35;97952.94;;;12.52;52.58
56894;BME280;43392;50.078;13.704;2023-05-03T10:45:06;97951.28;;;12.46;53.37
56894;BME280;43392;50.078;13.704;2023-05-03T10:47:34;97954.97;;;12.25;52.95
56894;BME280;43392;50.078;13.704;2023-05-03T10:50:25;97959.25;;;12.26;53.23
56894;BME280;43392;50.078;13.704;2023-05-03T10:52:52;97955.81;;;12.40;52.60
56894;BME280;43392;50.078;13.704;2023-05-03T10:55:20;97957.97;;;12.38;51.62
56894;BME280;43392;50.078;13.704;2023-05-03T10:57:49;97954.03;;;12.56;52.38
56894;BME280;43392;50.078;13.704;2023-05-03T11:00:23;97940.72;;;13.06;52.15
56894;BME280;43392;50.078;13.704;2023-05-03T11:03:23;97947.75;;;13.32;50.81
56894;BME280;43392;50.078;13.704;2023-05-03T11:05:53;97947.75;;;13.58;50.94
56894;BME280;43392;50.078;13.704;2023-05-03T11:08:23;97947.75;;;13.43;49.96
56894;BME280;43392;50.078;13.704;2023-05-03T11:10:56;97943.91;;;12.88;49.82
56894;BME280;43392;50.078;13.704;2023-05-03T11:13:23;97944.34;;;12.65;51.15
56894;BME280;43392;50.078;13.704;2023-05-03T11:15:52;97937.13;;;12.71;51.09
56894;BME280;43392;50.078;13.704;2023-05-03T11:18:19;97944.34;;;12.65;51.36
56894;BME280;43392;50.078;13.704;2023-05-03T11:20:45;97948.41;;;12.68;50.58
56894;BME280;43392;50.078;13.704;2023-05-03T11:23:12;97937.38;;;12.74;50.28
56894;BME280;43392;50.078;13.704;2023-05-03T11:25:39;97936.91;;;12.97;49.58
56894;BME280;43392;50.078;13.704;2023-05-03T11:28:06;97932.66;;;13.16;49.18
56894;BME280;43392;50.078;13.704;2023-05-03T11:30:33;97929.97;;;13.32;48.56
56894;BME280;43392;50.078;13.704;2023-05-03T11:33:03;97919.19;;;13.47;48.28
56894;BME280;43392;50.078;13.704;2023-05-03T11:35:29;97924.56;;;13.62;48.24
56894;BME280;43392;50.078;13.704;2023-05-03T11:37:57;97915.94;;;13.65;48.27
56894;BME280;43392;50.078;13.704;2023-05-03T11:40:24;97919.19;;;13.67;48.11
56894;BME280;43392;50.078;13.704;2023-05-03T11:42:52;97915.41;;;13.58;47.25
56894;BME280;43392;50.078;13.704;2023-05-03T11:45:20;97918.94;;;13.38;49.05
56894;BME280;43392;50.078;13.704;2023-05-03T11:47:47;97906.25;;;13.13;49.41
56894;BME280;43392;50.078;13.704;2023-05-03T11:50:15;97906.53;;;13.12;50.78
56894;BME280;43392;50.078;13.704;2023-05-03T11:52:43;97906.28;;;13.28;49.69
56894;BME280;43392;50.078;13.704;2023-05-03T11:55:10;97906.81;;;13.41;49.58
56894;BME280;43392;50.078;13.704;2023-05-03T11:57:37;97905.19;;;13.50;48.98
56894;BME280;43392;50.078;13.704;2023-05-03T12:00:11;97905.16;;;13.65;49.93
56894;BME280;43392;50.078;13.704;2023-05-03T12:02:42;97907.84;;;13.80;47.99
56894;BME280;43392;50.078;13.704;2023-05-03T12:05:08;97908.66;;;13.75;49.05
56894;BME280;43392;50.078;13.704;2023-05-03T12:07:37;97900.53;;;13.95;50.71
56894;BME280;43392;50.078;13.704;2023-05-03T12:10:14;97906.66;;;14.21;50.28
56894;BME280;43392;50.078;13.704;2023-05-03T12:12:52;97897.44;;;14.37;48.95
56894;BME280;43392;50.078;13.704;2023-05-03T12:15:29;97894.22;;;14.25;47.20
56894;BME280;43392;50.078;13.704;2023-05-03T12:17:57;97898.59;;;14.11;48.83
56894;BME280;43392;50.078;13.704;2023-05-03T12:20:25;97896.94;;;14.15;50.39
56894;BME280;43392;50.078;13.704;2023-05-03T12:22:55;97897.28;;;13.98;47.81
56894;BME280;43392;50.078;13.704;2023-05-03T12:25:22;97890.31;;;13.92;49.91
56894;BME280;43392;50.078;13.704;2023-05-03T12:27:51;97896.22;;;13.94;47.30
56894;BME280;43392;50.078;13.704;2023-05-03T12:30:18;97888.69;;;13.91;49.30
56894;BME280;43392;50.078;13.704;2023-05-03T12:32:44;97888.09;;;14.05;49.45
56894;BME280;43392;50.078;13.704;2023-05-03T12:35:11;97894.28;;;14.05;47.65
56894;BME280;43392;50.078;13.704;2023-05-03T12:37:37;97888.94;;;13.95;48.74
56894;BME280;43392;50.078;13.704;2023-05-03T12:40:06;97889.16;;;14.14;49.96
56894;BME280;43392;50.078;13.704;2023-05-03T12:42:33;97882.31;;;14.36;50.67
56894;BME280;43392;50.078;13.704;2023-05-03T12:45:00;97874.13;;;14.56;50.17
56894;BME280;43392;50.078;13.704;2023-05-03T12:47:27;97870.00;;;14.74;50.22
56894;BME280;43392;50.078;13.704;2023-05-03T12:49:54;97867.50;;;14.83;49.70
56894;BME280;43392;50.078;13.704;2023-05-03T12:52:20;97865.16;;;14.71;47.15
56894;BME280;43392;50.078;13.704;2023-05-03T12:54:47;97870.72;;;14.41;47.04
56894;BME280;43392;50.078;13.704;2023-05-03T12:57:15;97866.47;;;14.15;45.11
56894;BME280;43392;50.078;13.704;2023-05-03T12:59:42;97867.03;;;14.12;47.01